WXM80 ListenWXM80 Stop

You find our weather info also at:

UK Metoffice

WeatherCloud

Weather Underground

Northeastern Weather Network

AWEKAS

Citizen Weather Observer Program (CWOP)

HAMweather, WeatherForYou, PWS Weather


Weather Underground History page Text

Daily Summary for October 10, 2017 Units:  English    Metric   Both
« Previous Day
Next Day »
Daily Weekly Monthly Yearly Custom
  High: Low: Average:
Temperature: 82.6 °F 63.0 °F 71.5 °F
Dew Point: 73.7 °F 60.8 °F 66.1 °F
Humidity: 98 % 61 % 84 %
Wind Speed: 7.3 mph 0.0 mph 1.1 mph
Wind Gust: 11.5 mph - -
Wind:- - West
Pressure: 30.06 in 29.53 in -
Precipitation: 0.00 in    
Historical Graphs
 
 
Tabular Data for October 10, 2017
Time Temperature Dew Point Pressure Wind Wind Speed Wind Gust Humidity Rainfall Rate (Hourly)
00:07 73.7 °F 73.1 °F 29.76 in SW 2.6 mph 4.6 mph 98 % 0.00 in
00:12 73.9 °F 73.3 °F 29.74 in SW 0.6 mph 8.1 mph 98 % 0.00 in
00:13 73.8 °F 73.2 °F 29.75 in WSW 2.6 mph 4.0 mph 98 % 0.00 in
00:18 73.9 °F 73.3 °F 29.78 in SW 1.8 mph 9.2 mph 98 % 0.00 in
00:22 74.0 °F 73.4 °F 29.72 in SSW 4.1 mph 10.4 mph 98 % 0.00 in
00:27 74.1 °F 73.5 °F 29.73 in West 2.4 mph 3.5 mph 98 % 0.00 in
00:32 74.2 °F 73.6 °F 29.77 in SW 2.0 mph 11.5 mph 98 % 0.00 in
00:37 74.2 °F 73.6 °F 29.68 in WSW 2.1 mph 5.8 mph 98 % 0.00 in
00:42 74.3 °F 73.7 °F 29.63 in SW 1.1 mph 5.8 mph 98 % 0.00 in
00:47 74.3 °F 73.7 °F 29.66 in SW 3.9 mph 6.9 mph 98 % 0.00 in
00:52 74.3 °F 73.7 °F 29.68 in WSW 2.5 mph 5.8 mph 98 % 0.00 in
00:57 74.3 °F 73.7 °F 29.67 in West 1.5 mph 6.9 mph 98 % 0.00 in
01:02 74.2 °F 73.3 °F 29.68 in WSW 7.3 mph 11.5 mph 97 % 0.00 in
01:07 74.2 °F 73.3 °F 29.79 in West 4.4 mph 6.9 mph 97 % 0.00 in
01:13 74.1 °F 73.2 °F 29.76 in SW 3.1 mph 4.6 mph 97 % 0.00 in
01:18 74.0 °F 73.1 °F 29.76 in West 2.6 mph 4.6 mph 97 % 0.00 in
01:23 73.9 °F 73.0 °F 29.78 in SW 1.2 mph 3.5 mph 97 % 0.00 in
01:28 73.7 °F 72.5 °F 29.69 in West 4.6 mph 8.1 mph 96 % 0.00 in
01:33 73.5 °F 72.0 °F 29.53 in WNW 1.3 mph 6.9 mph 95 % 0.00 in
01:38 73.3 °F 71.8 °F 29.77 in NW 1.8 mph 3.5 mph 95 % 0.00 in
01:43 73.2 °F 71.4 °F 29.72 in WNW 2.5 mph 4.6 mph 94 % 0.00 in
01:48 73.1 °F 71.3 °F 29.67 in West 0.9 mph 3.5 mph 94 % 0.00 in
01:53 73.0 °F 71.2 °F 29.69 in WNW 1.6 mph 3.5 mph 94 % 0.00 in
01:58 72.8 °F 70.7 °F 29.75 in WNW 3.0 mph 5.8 mph 93 % 0.00 in
02:03 72.7 °F 70.2 °F 29.67 in WNW 4.1 mph 8.1 mph 92 % 0.00 in
02:08 72.6 °F 70.1 °F 29.74 in NW 2.3 mph 5.0 mph 92 % 0.00 in
02:13 72.5 °F 70.0 °F 29.60 in West 5.7 mph 10.4 mph 92 % 0.00 in
02:18 72.4 °F 69.9 °F 29.76 in WNW 1.6 mph 4.0 mph 92 % 0.00 in
02:23 72.3 °F 69.5 °F 29.72 in West 2.7 mph 4.6 mph 91 % 0.00 in
02:28 72.2 °F 69.4 °F 29.75 in WNW 1.7 mph 9.0 mph 91 % 0.00 in
02:33 72.1 °F 69.3 °F 29.80 in WNW 3.0 mph 5.0 mph 91 % 0.00 in
02:38 72.0 °F 69.2 °F 29.73 in WNW 1.9 mph 4.6 mph 91 % 0.00 in
02:43 71.9 °F 69.1 °F 29.69 in WSW 1.7 mph 5.8 mph 91 % 0.00 in
02:48 71.8 °F 69.0 °F 29.74 in West 2.0 mph 3.5 mph 91 % 0.00 in
02:53 71.7 °F 68.9 °F 29.77 in West 3.5 mph 5.8 mph 91 % 0.00 in
03:03 71.4 °F 68.6 °F 29.78 in WSW 3.3 mph 4.6 mph 91 % 0.00 in
03:08 71.3 °F 68.5 °F 29.77 in NW 1.4 mph 3.5 mph 91 % 0.00 in
03:13 71.2 °F 68.1 °F 29.76 in NW 0.6 mph 3.5 mph 90 % 0.00 in
03:18 71.0 °F 68.2 °F 29.80 in West 2.1 mph 4.6 mph 91 % 0.00 in
03:28 70.8 °F 68.0 °F 29.72 in WSW 2.3 mph 3.5 mph 91 % 0.00 in
03:33 70.7 °F 67.9 °F 29.72 in WNW 2.4 mph 5.0 mph 91 % 0.00 in
03:38 70.5 °F 67.7 °F 29.68 in WSW 0.9 mph 3.5 mph 91 % 0.00 in
03:43 70.4 °F 67.6 °F 29.66 in WSW 1.8 mph 3.5 mph 91 % 0.00 in
03:48 70.3 °F 67.5 °F 29.67 in WSW 1.5 mph 5.0 mph 91 % 0.00 in
03:53 70.2 °F 67.4 °F 29.66 in WSW 0.6 mph 1.2 mph 91 % 0.00 in
03:58 70.1 °F 67.3 °F 29.78 in West 2.4 mph 5.8 mph 91 % 0.00 in
04:04 69.9 °F 67.2 °F 29.79 in WNW 3.1 mph 6.9 mph 91 % 0.00 in
04:09 69.9 °F 67.2 °F 29.78 in WNW 1.3 mph 3.5 mph 91 % 0.00 in
04:14 69.7 °F 67.0 °F 29.57 in WSW 1.6 mph 5.0 mph 91 % 0.00 in
04:19 69.6 °F 66.9 °F 29.59 in WNW 2.4 mph 3.5 mph 91 % 0.00 in
04:24 69.5 °F 66.8 °F 29.72 in WNW 1.8 mph 3.5 mph 91 % 0.00 in
04:29 69.4 °F 66.7 °F 29.74 in West 0.9 mph 3.5 mph 91 % 0.00 in
04:34 69.3 °F 66.6 °F 29.65 in WNW 0.9 mph 3.5 mph 91 % 0.00 in
04:39 69.2 °F 66.8 °F 29.64 in WNW 0.2 mph 1.2 mph 92 % 0.00 in
04:44 69.1 °F 66.4 °F 29.74 in West 1.8 mph 3.5 mph 91 % 0.00 in
04:49 69.0 °F 66.6 °F 29.79 in West 1.9 mph 3.5 mph 92 % 0.00 in
04:54 68.9 °F 66.5 °F 29.79 in WNW 2.4 mph 3.5 mph 92 % 0.00 in
04:59 68.8 °F 66.4 °F 29.83 in WNW 0.2 mph 3.0 mph 92 % 0.00 in
05:04 68.6 °F 66.2 °F 29.78 in WNW 1.9 mph 3.5 mph 92 % 0.00 in
05:09 68.6 °F 66.2 °F 29.79 in WNW 2.6 mph 3.5 mph 92 % 0.00 in
05:14 68.5 °F 66.1 °F 29.83 in West 1.5 mph 3.5 mph 92 % 0.00 in
05:19 68.4 °F 66.0 °F 29.78 in West 1.8 mph 3.5 mph 92 % 0.00 in
05:24 68.3 °F 65.9 °F 29.85 in NW 0.8 mph 3.5 mph 92 % 0.00 in
05:29 68.3 °F 65.9 °F 29.76 in WNW 0.7 mph 3.0 mph 92 % 0.00 in
05:34 68.2 °F 65.8 °F 29.60 in WNW 0.2 mph 3.5 mph 92 % 0.00 in
05:39 68.1 °F 66.0 °F 29.67 in WNW 0.2 mph   93 % 0.00 in
05:44 68.0 °F 65.9 °F 29.65 in WNW 0.5 mph 2.3 mph 93 % 0.00 in
05:49 67.9 °F 65.8 °F 29.63 in WNW 0.2 mph 2.0 mph 93 % 0.00 in
05:54 67.9 °F 65.8 °F 29.71 in WNW 0.1 mph 3.5 mph 93 % 0.00 in
05:55 67.9 °F 65.8 °F 29.71 in NW 0.8 mph 3.5 mph 93 % 0.00 in
06:00 67.7 °F 65.6 °F 29.88 in NW 0.2 mph 3.5 mph 93 % 0.00 in
06:05 67.6 °F 65.5 °F 29.75 in NW 0.1 mph 2.3 mph 93 % 0.00 in
06:10 67.5 °F 65.4 °F 29.67 in NNW 0.7 mph 2.3 mph 93 % 0.00 in
06:15 67.5 °F 65.4 °F 29.71 in NNW 0.3 mph 2.0 mph 93 % 0.00 in
06:20 67.4 °F 65.3 °F 29.71 in NW 0.3 mph 3.5 mph 93 % 0.00 in
06:25 67.3 °F 65.2 °F 29.82 in NNW 1.3 mph 3.0 mph 93 % 0.00 in
06:30 67.2 °F 65.1 °F 29.85 in NNW 1.0 mph 4.0 mph 93 % 0.00 in
06:35 67.2 °F 65.1 °F 29.84 in NNW 1.0 mph 4.0 mph 93 % 0.00 in
06:45 67.0 °F 64.6 °F 29.76 in NNW 1.0 mph 5.0 mph 92 % 0.00 in
06:51 66.9 °F 64.5 °F 29.84 in NNW 1.0 mph 5.0 mph 92 % 0.00 in
06:56 66.8 °F 64.4 °F 29.91 in NNW 0.1 mph 2.3 mph 92 % 0.00 in
07:01 66.8 °F 64.4 °F 29.91 in NW 0.5 mph 3.0 mph 92 % 0.00 in
07:06 66.7 °F 64.3 °F 29.87 in NW 0.7 mph 2.3 mph 92 % 0.00 in
07:11 66.7 °F 64.0 °F 29.78 in NNW 0.1 mph 1.2 mph 91 % 0.00 in
07:16 66.6 °F 63.9 °F 29.86 in NNW 0.7 mph 2.3 mph 91 % 0.00 in
07:31 66.5 °F 63.8 °F 29.85 in NW 0.2 mph 3.5 mph 91 % 0.00 in
07:36 66.5 °F 63.8 °F 29.92 in NW 0.2 mph 2.3 mph 91 % 0.00 in
07:41 66.5 °F 63.8 °F 29.95 in Calm   1.2 mph 91 % 0.00 in
07:46 66.6 °F 63.9 °F 29.83 in NNW 0.1 mph 1.2 mph 91 % 0.00 in
07:51 66.6 °F 63.9 °F 29.68 in NNW 0.2 mph 1.2 mph 91 % 0.00 in
07:53 66.7 °F 64.0 °F 29.65 in NNW 0.4 mph 1.2 mph 91 % 0.00 in
07:58 66.7 °F 64.0 °F 29.86 in NNW 2.1 mph 3.5 mph 91 % 0.00 in
08:03 66.7 °F 64.0 °F 29.81 in NNW 1.2 mph 3.5 mph 91 % 0.00 in
08:08 66.8 °F 63.8 °F 29.90 in NNW 0.2 mph 1.2 mph 90 % 0.00 in
08:13 66.8 °F 63.8 °F 29.81 in NNW 1.7 mph 3.5 mph 90 % 0.00 in
08:18 66.9 °F 63.9 °F 29.80 in WNW 0.3 mph 3.5 mph 90 % 0.00 in
08:23 67.0 °F 64.0 °F 29.79 in NW 0.1 mph 3.5 mph 90 % 0.00 in
08:28 67.0 °F 64.0 °F 29.83 in North 1.9 mph 4.6 mph 90 % 0.00 in
08:33 67.1 °F 64.1 °F 29.74 in NNE 0.8 mph 3.5 mph 90 % 0.00 in
08:38 67.2 °F 63.8 °F 29.80 in North 0.2 mph 1.2 mph 89 % 0.00 in
08:43 67.2 °F 63.8 °F 29.78 in North 0.2 mph 3.5 mph 89 % 0.00 in
08:48 67.3 °F 63.6 °F 29.90 in NNE 2.7 mph 4.6 mph 88 % 0.00 in
08:53 67.4 °F 64.0 °F 29.59 in North 0.1 mph 2.0 mph 89 % 0.00 in
08:58 67.5 °F 63.8 °F 29.90 in NNE 0.6 mph 1.2 mph 88 % 0.00 in
09:03 67.5 °F 63.8 °F 29.90 in NNE 0.3 mph 1.2 mph 88 % 0.00 in
09:08 67.6 °F 63.9 °F 29.93 in NNW 1.2 mph 3.5 mph 88 % 0.00 in
09:13 67.6 °F 63.9 °F 29.88 in Calm   1.2 mph 88 % 0.00 in
09:18 67.7 °F 64.0 °F 29.92 in NW 1.4 mph 3.5 mph 88 % 0.00 in
09:23 67.7 °F 63.7 °F 29.92 in Calm   3.5 mph 87 % 0.00 in
09:28 67.8 °F 64.1 °F 29.92 in NW 0.9 mph 3.5 mph 88 % 0.00 in
09:33 67.9 °F 63.9 °F 29.92 in NW 1.9 mph 3.5 mph 87 % 0.00 in
09:38 67.9 °F 63.9 °F 29.62 in NW 1.0 mph 3.0 mph 87 % 0.00 in
09:44 68.0 °F 64.0 °F 29.86 in NNW 0.3 mph 1.2 mph 87 % 0.00 in
09:49 68.1 °F 64.1 °F 29.87 in NNW 0.9 mph 3.5 mph 87 % 0.00 in
09:54 68.2 °F 63.9 °F 29.87 in WNW 1.0 mph 3.5 mph 86 % 0.00 in
10:09 68.8 °F 64.8 °F 29.68 in WNW 2.9 mph 5.8 mph 87 % 0.00 in
10:14 68.9 °F 64.5 °F 29.88 in WNW 2.0 mph 3.5 mph 86 % 0.00 in
10:19 69.2 °F 64.8 °F 29.76 in WNW 1.3 mph 4.0 mph 86 % 0.00 in
10:20 69.3 °F 64.9 °F 29.95 in West 1.9 mph 5.8 mph 86 % 0.00 in
10:25 69.5 °F 65.1 °F 29.75 in WSW 2.0 mph 4.6 mph 86 % 0.00 in
10:30 69.7 °F 65.0 °F 29.89 in West 1.7 mph 3.5 mph 85 % 0.00 in
10:35 69.9 °F 64.8 °F 29.89 in West 0.1 mph 2.3 mph 84 % 0.00 in
10:40 70.2 °F 65.1 °F 29.96 in WSW 3.0 mph 5.0 mph 84 % 0.00 in
10:45 70.5 °F 65.1 °F 29.95 in WSW 2.0 mph 4.6 mph 83 % 0.00 in
10:50 70.8 °F 65.7 °F 29.95 in WNW 1.7 mph 7.0 mph 84 % 0.00 in
10:55 71.1 °F 65.7 °F 29.95 in West 1.7 mph 2.0 mph 83 % 0.00 in
11:00 71.4 °F 66.0 °F 29.74 in WNW 3.2 mph 5.0 mph 83 % 0.00 in
11:05 71.9 °F 66.1 °F 29.84 in West 3.9 mph 6.9 mph 82 % 0.00 in
11:10 72.2 °F 66.4 °F 29.93 in SSW 3.7 mph 7.0 mph 82 % 0.00 in
11:13 72.4 °F 66.6 °F 29.94 in NW 0.9 mph 5.8 mph 82 % 0.00 in
11:18 72.8 °F 67.0 °F 29.86 in WNW 0.4 mph 3.0 mph 82 % 0.00 in
11:23 73.2 °F 67.4 °F 29.98 in WSW 0.9 mph 3.5 mph 82 % 0.00 in
11:28 73.9 °F 67.7 °F 29.95 in SW 2.2 mph 4.0 mph 81 % 0.00 in
11:38 75.2 °F 68.2 °F 29.95 in WSW 1.1 mph 3.5 mph 79 % 0.00 in
11:43 75.9 °F 67.4 °F 29.93 in WSW 2.7 mph 7.0 mph 75 % 0.00 in
11:48 76.2 °F 67.7 °F 29.93 in WSW 1.1 mph 3.5 mph 75 % 0.00 in
11:53 76.6 °F 67.7 °F 29.96 in SSW 1.5 mph 6.0 mph 74 % 0.00 in
11:58 77.0 °F 68.1 °F 29.92 in SW 1.1 mph 2.3 mph 74 % 0.00 in
12:03 77.3 °F 68.4 °F 29.74 in SW 1.1 mph 3.5 mph 74 % 0.00 in
12:08 77.5 °F 68.6 °F 29.92 in SW 2.5 mph 3.5 mph 74 % 0.00 in
12:18 78.0 °F 69.0 °F 29.94 in WSW 1.4 mph 3.5 mph 74 % 0.00 in
12:23 78.3 °F 68.1 °F 29.91 in SSW 2.3 mph 4.6 mph 71 % 0.00 in
12:28 78.9 °F 68.7 °F 29.93 in West 3.2 mph 4.6 mph 71 % 0.00 in
12:33 79.1 °F 67.6 °F 29.93 in West 4.5 mph 5.8 mph 68 % 0.00 in
12:38 79.4 °F 67.9 °F 29.94 in West 3.7 mph 4.6 mph 68 % 0.00 in
12:48 79.6 °F 67.7 °F 29.93 in WNW 3.1 mph 4.6 mph 67 % 0.00 in
12:53 79.5 °F 67.6 °F 29.97 in WSW 2.7 mph 5.8 mph 67 % 0.00 in
12:58 79.3 °F 67.4 °F 29.93 in NW 1.6 mph 3.5 mph 67 % 0.00 in
13:03 79.1 °F 67.6 °F 29.93 in West 0.5 mph 3.5 mph 68 % 0.00 in
13:08 79.0 °F 67.1 °F 29.93 in WNW 2.0 mph 3.5 mph 67 % 0.00 in
13:13 79.0 °F 67.5 °F 29.91 in WSW 3.2 mph 5.8 mph 68 % 0.00 in
13:18 79.0 °F 68.0 °F 29.96 in WNW 0.7 mph 4.0 mph 69 % 0.00 in
13:23 79.0 °F 67.5 °F 29.93 in SSW 2.0 mph 5.0 mph 68 % 0.00 in
13:28 79.2 °F 68.1 °F 29.96 in SW 3.5 mph 5.8 mph 69 % 0.00 in
13:33 79.5 °F 67.6 °F 29.97 in WSW 1.8 mph 3.5 mph 67 % 0.00 in
13:38 79.8 °F 68.3 °F 29.93 in WSW 1.9 mph 3.5 mph 68 % 0.00 in
13:43 80.1 °F 68.2 °F 29.94 in SW 0.3 mph 4.6 mph 67 % 0.00 in
13:48 80.6 °F 68.6 °F 29.85 in WNW 0.9 mph 5.0 mph 67 % 0.00 in
13:54 81.0 °F 69.4 °F 29.96 in West 3.3 mph 6.9 mph 68 % 0.00 in
13:59 81.2 °F 68.3 °F 29.93 in WNW 2.8 mph 8.1 mph 65 % 0.00 in
14:04 81.7 °F 68.3 °F 29.90 in NNE 0.1 mph 2.3 mph 64 % 0.00 in
14:09 81.9 °F 69.0 °F 29.90 in WNW 2.4 mph 4.6 mph 65 % 0.00 in
14:14 82.0 °F 69.1 °F 29.89 in NW 0.2 mph 2.3 mph 65 % 0.00 in
14:19 82.1 °F 67.8 °F 29.90 in WNW 2.5 mph 6.0 mph 62 % 0.00 in
14:24 82.3 °F 68.0 °F 29.88 in NW 2.3 mph 4.6 mph 62 % 0.00 in
14:29 82.5 °F 68.2 °F 29.85 in NNE 0.7 mph 2.3 mph 62 % 0.00 in
14:34 82.6 °F 68.3 °F 29.92 in NW 1.5 mph 3.5 mph 62 % 0.00 in
14:39 82.4 °F 67.6 °F 29.86 in NNE 3.5 mph 4.6 mph 61 % 0.00 in
14:44 82.1 °F 68.7 °F 29.86 in NW 0.6 mph 3.5 mph 64 % 0.00 in
14:49 81.9 °F 68.5 °F 29.86 in North 0.2 mph 1.2 mph 64 % 0.00 in
14:54 81.7 °F 68.3 °F 29.86 in WNW 1.4 mph 4.6 mph 64 % 0.00 in
14:59 81.4 °F 67.6 °F 29.86 in NW 2.0 mph 4.6 mph 63 % 0.00 in
15:04 81.1 °F 68.2 °F 29.92 in Calm   1.2 mph 65 % 0.00 in
15:07 80.7 °F 68.3 °F 29.92 in WNW 0.5 mph 2.3 mph 66 % 0.00 in
15:12 80.2 °F 67.8 °F 29.90 in Calm   1.2 mph 66 % 0.00 in
15:17 79.8 °F 67.9 °F 29.92 in WNW 0.7 mph 2.3 mph 67 % 0.00 in
15:22 79.5 °F 68.4 °F 29.87 in WNW 1.0 mph 3.5 mph 69 % 0.00 in
15:27 79.3 °F 67.8 °F 29.92 in WNW 1.0 mph 3.5 mph 68 % 0.00 in
15:32 79.2 °F 67.3 °F 29.89 in WNW 0.1 mph 2.3 mph 67 % 0.00 in
15:37 78.9 °F 66.6 °F 29.90 in NW 1.1 mph 3.5 mph 66 % 0.00 in
15:42 78.8 °F 67.8 °F 29.85 in Calm   1.2 mph 69 % 0.00 in
15:47 78.7 °F 66.8 °F 29.87 in North 1.8 mph 3.5 mph 67 % 0.00 in
15:52 78.6 °F 65.8 °F 29.87 in WNW 0.6 mph 3.5 mph 65 % 0.00 in
15:57 78.4 °F 66.5 °F 29.92 in WNW 3.1 mph 3.5 mph 67 % 0.00 in
16:02 78.3 °F 66.4 °F 29.92 in Calm     67 % 0.00 in
16:08 78.2 °F 66.3 °F 29.92 in North 2.3 mph 2.3 mph 67 % 0.00 in
16:13 78.0 °F 66.2 °F 29.92 in NW 0.8 mph 1.2 mph 67 % 0.00 in
16:18 77.7 °F 66.3 °F 29.92 in NW 0.5 mph 2.3 mph 68 % 0.00 in
16:23 77.5 °F 66.5 °F 29.92 in Calm   1.2 mph 69 % 0.00 in
16:28 77.4 °F 66.4 °F 29.88 in WNW 0.2 mph 3.5 mph 69 % 0.00 in
16:33 77.2 °F 66.2 °F 29.92 in West 1.0 mph 2.3 mph 69 % 0.00 in
16:38 77.1 °F 66.1 °F 29.92 in Calm     69 % 0.00 in
16:43 77.0 °F 66.0 °F 29.92 in West 1.6 mph 3.5 mph 69 % 0.00 in
16:48 76.9 °F 66.0 °F 29.91 in West 0.8 mph 2.3 mph 69 % 0.00 in
16:53 76.8 °F 65.9 °F 29.91 in West 0.3 mph 2.0 mph 69 % 0.00 in
16:58 76.6 °F 65.7 °F 29.97 in Calm     69 % 0.00 in
17:03 76.4 °F 65.5 °F 29.93 in Calm     69 % 0.00 in
17:08 76.3 °F 65.4 °F 29.93 in Calm     69 % 0.00 in
17:13 76.2 °F 65.3 °F 29.92 in Calm     69 % 0.00 in
17:18 76.1 °F 65.6 °F 29.94 in Calm     70 % 0.00 in
17:23 76.0 °F 65.5 °F 29.95 in Calm     70 % 0.00 in
17:28 75.8 °F 65.3 °F 29.93 in Calm     70 % 0.00 in
17:33 75.7 °F 65.6 °F 29.93 in Calm     71 % 0.00 in
17:38 75.5 °F 65.8 °F 29.94 in Calm     72 % 0.00 in
17:43 75.4 °F 66.1 °F 29.95 in Calm     73 % 0.00 in
17:48 75.2 °F 65.9 °F 29.82 in Calm     73 % 0.00 in
17:53 75.1 °F 66.2 °F 29.81 in Calm     74 % 0.00 in
17:58 74.8 °F 66.3 °F 29.95 in Calm     75 % 0.00 in
18:03 74.6 °F 66.5 °F 29.94 in Calm     76 % 0.00 in
18:08 74.4 °F 66.7 °F 29.94 in Calm     77 % 0.00 in
18:13 74.0 °F 66.7 °F 29.91 in Calm     78 % 0.00 in
18:19 73.7 °F 66.8 °F 29.92 in Calm     79 % 0.00 in
18:24 73.4 °F 66.5 °F 29.99 in Calm     79 % 0.00 in
18:34 72.8 °F 66.3 °F 29.95 in Calm     80 % 0.00 in
18:39 72.5 °F 66.3 °F 29.95 in Calm     81 % 0.00 in
18:44 72.1 °F 66.3 °F 29.98 in Calm     82 % 0.00 in
18:45 72.1 °F 65.9 °F 29.96 in West 0.2 mph 1.2 mph 81 % 0.00 in
18:50 71.8 °F 66.0 °F 29.96 in Calm   1.2 mph 82 % 0.00 in
18:55 71.4 °F 65.6 °F 29.95 in Calm     82 % 0.00 in
19:00 71.1 °F 65.3 °F 29.95 in Calm     82 % 0.00 in
19:05 70.7 °F 65.3 °F 29.98 in Calm     83 % 0.00 in
19:10 70.4 °F 65.0 °F 29.97 in West 0.4 mph 1.2 mph 83 % 0.00 in
19:20 70.0 °F 64.6 °F 29.98 in Calm     83 % 0.00 in
19:25 69.8 °F 64.7 °F 29.97 in Calm     84 % 0.00 in
19:30 69.5 °F 64.5 °F 29.98 in Calm     84 % 0.00 in
19:35 69.3 °F 64.3 °F 29.97 in Calm     84 % 0.00 in
19:40 69.0 °F 64.0 °F 29.97 in Calm     84 % 0.00 in
19:45 68.8 °F 64.1 °F 29.97 in Calm     85 % 0.00 in
19:50 68.6 °F 64.2 °F 29.90 in Calm     86 % 0.00 in
19:55 68.4 °F 63.7 °F 29.86 in Calm     85 % 0.00 in
20:00 68.2 °F 63.9 °F 29.98 in Calm     86 % 0.00 in
20:05 68.0 °F 63.7 °F 29.98 in Calm     86 % 0.00 in
20:10 67.9 °F 63.9 °F 29.79 in Calm     87 % 0.00 in
20:15 67.6 °F 63.6 °F 29.82 in Calm     87 % 0.00 in
20:20 67.5 °F 63.5 °F 29.85 in Calm     87 % 0.00 in
20:25 67.3 °F 63.3 °F 29.89 in Calm     87 % 0.00 in
20:30 67.1 °F 63.1 °F 29.80 in Calm   1.2 mph 87 % 0.00 in
20:35 67.0 °F 63.3 °F 29.86 in Calm     88 % 0.00 in
20:40 66.8 °F 63.1 °F 29.97 in Calm   1.2 mph 88 % 0.00 in
20:45 66.7 °F 63.0 °F 29.78 in Calm   1.2 mph 88 % 0.00 in
20:51 66.6 °F 62.9 °F 29.86 in Calm     88 % 0.00 in
20:55 66.4 °F 62.7 °F 29.85 in Calm     88 % 0.00 in
21:01 66.3 °F 62.6 °F 29.85 in Calm     88 % 0.00 in
21:06 66.2 °F 62.9 °F 29.80 in Calm     89 % 0.00 in
21:11 66.1 °F 62.8 °F 29.82 in Calm     89 % 0.00 in
21:16 66.0 °F 62.7 °F 29.73 in Calm     89 % 0.00 in
21:21 65.8 °F 62.5 °F 29.77 in Calm     89 % 0.00 in
21:26 65.7 °F 62.4 °F 29.71 in Calm     89 % 0.00 in
21:31 65.6 °F 62.6 °F 29.68 in Calm     90 % 0.00 in
21:36 65.5 °F 62.5 °F 29.75 in Calm     90 % 0.00 in
21:38 65.4 °F 62.4 °F 29.75 in Calm     90 % 0.00 in
21:43 65.3 °F 62.3 °F 30.01 in Calm     90 % 0.00 in
21:48 65.2 °F 62.2 °F 29.85 in Calm     90 % 0.00 in
21:53 65.1 °F 62.1 °F 29.98 in Calm     90 % 0.00 in
21:58 65.0 °F 62.0 °F 29.70 in Calm     90 % 0.00 in
22:03 64.9 °F 62.2 °F 29.80 in Calm     91 % 0.00 in
22:08 64.7 °F 61.7 °F 30.01 in Calm     90 % 0.00 in
22:13 64.6 °F 61.9 °F 29.76 in Calm     91 % 0.00 in
22:18 64.5 °F 61.8 °F 29.86 in Calm     91 % 0.00 in
22:23 64.4 °F 61.7 °F 29.94 in Calm     91 % 0.00 in
22:28 64.3 °F 61.6 °F 29.87 in Calm     91 % 0.00 in
22:33 64.2 °F 61.5 °F 29.97 in Calm     91 % 0.00 in
22:38 64.1 °F 61.4 °F 29.82 in Calm     91 % 0.00 in
22:43 64.0 °F 61.3 °F 29.81 in Calm   1.2 mph 91 % 0.00 in
22:48 63.9 °F 61.2 °F 29.98 in Calm     91 % 0.00 in
22:53 63.8 °F 61.1 °F 30.00 in Calm     91 % 0.00 in
22:59 63.7 °F 61.0 °F 29.95 in Calm     91 % 0.00 in
23:04 63.6 °F 60.9 °F 29.84 in Calm     91 % 0.00 in
23:09 63.5 °F 60.8 °F 29.79 in Calm   1.0 mph 91 % 0.00 in
23:16 63.4 °F 61.0 °F 30.06 in Calm     92 % 0.00 in
23:21 63.3 °F 60.9 °F 29.97 in Calm     92 % 0.00 in
23:22 63.4 °F 61.0 °F 29.80 in Calm     92 % 0.00 in
23:24 63.3 °F 61.2 °F 29.89 in Calm     93 % 0.00 in
23:27 63.3 °F 61.2 °F 30.06 in Calm     93 % 0.00 in
23:32 63.2 °F 61.1 °F 29.98 in Calm     93 % 0.00 in
23:37 63.2 °F 61.1 °F 29.88 in Calm     93 % 0.00 in
23:39 63.2 °F 61.1 °F 29.82 in Calm     93 % 0.00 in
23:49 63.1 °F 61.0 °F 30.05 in Calm     93 % 0.00 in
23:54 63.1 °F 61.0 °F 29.98 in Calm   1.2 mph 93 % 0.00 in
23:59 63.0 °F 60.9 °F 30.06 in Calm     93 % 0.00 in
Crab Meadow Weather
Compliments of Weather Underground - 3 mb

Script developed by  Jim McMurry - jmcmurry@mwt.net Adapted for the template by  Wim van der Kuil - Leuven-Template.eu

Weather Terms: Squall line - A line of thunderstorms or squalls which may extend over several hundred miles.